createdAt,value
2022-09-23T00:02:54.326Z,100686
2022-09-23T00:07:54.301Z,100694
2022-09-23T00:12:54.300Z,100691
2022-09-23T00:17:54.308Z,100691
2022-09-23T00:22:54.284Z,100674
2022-09-23T00:27:54.316Z,100680
2022-09-23T00:32:54.313Z,100680
2022-09-23T00:37:54.300Z,100668
2022-09-23T00:42:54.349Z,100668
2022-09-23T00:47:54.328Z,100664
2022-09-23T00:52:54.329Z,100658
2022-09-23T01:02:54.323Z,100657
2022-09-23T01:07:54.304Z,100663
2022-09-23T01:12:54.550Z,100668
2022-09-23T01:17:54.337Z,100667
2022-09-23T01:22:54.342Z,100669
2022-09-23T01:27:54.304Z,100662
2022-09-23T01:32:54.365Z,100664
2022-09-23T01:37:54.318Z,100661
2022-09-23T01:42:54.514Z,100659
2022-09-23T01:47:54.369Z,100659
2022-09-23T01:52:54.342Z,100659
2022-09-23T01:57:54.344Z,100659
2022-09-23T02:02:54.332Z,100655
2022-09-23T02:07:54.338Z,100656
2022-09-23T02:12:54.346Z,100656
2022-09-23T02:17:54.366Z,100654
2022-09-23T02:22:54.366Z,100650
2022-09-23T02:27:54.358Z,100648
2022-09-23T02:32:54.342Z,100653
2022-09-23T02:37:54.371Z,100653
2022-09-23T02:42:54.928Z,100647
2022-09-23T02:47:54.366Z,100647
2022-09-23T02:52:54.340Z,100652
2022-09-23T02:57:54.377Z,100649
2022-09-23T03:02:54.373Z,100653
2022-09-23T03:07:54.403Z,100652
2022-09-23T03:12:54.390Z,100658
2022-09-23T03:17:54.419Z,100658
2022-09-23T03:22:54.356Z,100654
2022-09-23T03:27:54.388Z,100656
2022-09-23T03:32:54.358Z,100655
2022-09-23T03:37:54.388Z,100662
2022-09-23T03:42:54.387Z,100655
2022-09-23T03:47:54.580Z,100647
2022-09-23T03:52:54.365Z,100647
2022-09-23T03:57:54.396Z,100647
2022-09-23T04:02:54.400Z,100654
2022-09-23T04:07:54.408Z,100652
2022-09-23T04:17:54.542Z,100652
2022-09-23T04:22:54.396Z,100652
2022-09-23T04:27:54.408Z,100657
2022-09-23T04:32:54.427Z,100658
2022-09-23T04:37:54.399Z,100656
2022-09-23T04:42:54.415Z,100656
2022-09-23T04:47:54.404Z,100660
2022-09-23T04:52:54.423Z,100664
2022-09-23T04:57:54.405Z,100667
2022-09-23T05:02:54.422Z,100667
2022-09-23T05:07:54.478Z,100677
2022-09-23T05:12:57.219Z,100685
2022-09-23T05:17:54.388Z,100686
2022-09-23T05:22:54.445Z,100686
2022-09-23T05:27:54.436Z,100686
2022-09-23T05:32:54.478Z,100697
2022-09-23T05:37:54.408Z,100696
2022-09-23T05:42:54.440Z,100702
2022-09-23T05:47:54.424Z,100696
2022-09-23T05:52:54.436Z,100702
2022-09-23T05:57:54.447Z,100708
2022-09-23T06:02:54.467Z,100707
2022-09-23T06:07:54.464Z,100701
2022-09-23T06:12:54.411Z,100701
2022-09-23T06:17:54.442Z,100712
2022-09-23T06:22:55.441Z,100712
2022-09-23T06:27:54.432Z,100716
2022-09-23T06:32:54.476Z,100726
2022-09-23T06:37:54.438Z,100722
2022-09-23T06:42:54.448Z,100718
2022-09-23T06:47:54.476Z,100730
2022-09-23T06:52:54.464Z,100732
2022-09-23T06:57:54.450Z,100732
2022-09-23T07:02:54.524Z,100730
2022-09-23T07:07:54.462Z,100728
2022-09-23T07:12:54.435Z,100728
2022-09-23T07:17:54.479Z,100732
2022-09-23T07:22:54.478Z,100737
2022-09-23T07:27:54.459Z,100737
2022-09-23T07:32:54.528Z,100740
2022-09-23T07:37:54.483Z,100741
2022-09-23T07:42:54.720Z,100741
2022-09-23T07:47:54.460Z,100739
2022-09-23T07:52:54.476Z,100732
2022-09-23T07:57:54.501Z,100740
2022-09-23T08:02:54.576Z,100740
2022-09-23T08:07:54.485Z,100731
2022-09-23T08:12:54.509Z,100737
2022-09-23T08:17:54.520Z,100732
2022-09-23T08:22:54.686Z,100731
2022-09-23T08:27:54.490Z,100727
2022-09-23T08:32:54.528Z,100728
2022-09-23T08:37:54.500Z,100727
2022-09-23T08:42:54.623Z,100727
2022-09-23T08:47:54.472Z,100726
2022-09-23T08:52:54.511Z,100724
2022-09-23T08:58:23.518Z,100721
2022-09-23T09:02:54.571Z,100720
2022-09-23T09:07:54.564Z,100718
2022-09-23T09:12:54.549Z,100712
2022-09-23T09:17:54.507Z,100715
2022-09-23T09:22:54.568Z,100709
2022-09-23T09:27:54.545Z,100702
2022-09-23T09:32:54.552Z,100697
2022-09-23T09:37:54.548Z,100698
2022-09-23T09:42:54.506Z,100693
2022-09-23T09:47:54.548Z,100682
2022-09-23T09:52:54.490Z,100678
2022-09-23T09:57:54.504Z,100675
2022-09-23T10:02:54.493Z,100671
2022-09-23T10:07:54.524Z,100670
2022-09-23T10:12:54.707Z,100667
2022-09-23T10:17:54.497Z,100666
2022-09-23T10:22:54.477Z,100661
2022-09-23T10:27:54.507Z,100662
2022-09-23T10:32:54.697Z,100660
2022-09-23T10:37:54.536Z,100652
2022-09-23T10:42:54.477Z,100651
2022-09-23T10:47:54.522Z,100645
2022-09-23T10:52:54.816Z,100645
2022-09-23T10:57:54.530Z,100645
2022-09-23T11:02:54.532Z,100639
2022-09-23T11:07:54.555Z,100636
2022-09-23T11:12:54.523Z,100625
2022-09-23T11:17:54.551Z,100622
2022-09-23T11:22:54.567Z,100617
2022-09-23T11:27:54.559Z,100619
2022-09-23T11:32:54.627Z,100612
2022-09-23T11:37:54.555Z,100606
2022-09-23T11:42:54.567Z,100606
2022-09-23T11:47:54.573Z,100599
2022-09-23T11:52:54.562Z,100592
2022-09-23T11:57:54.586Z,100590
2022-09-23T12:03:03.938Z,100592
2022-09-23T12:07:54.577Z,100587
2022-09-23T12:12:54.589Z,100587
2022-09-23T12:17:54.598Z,100582
2022-09-23T12:22:54.584Z,100570
2022-09-23T12:27:54.595Z,100566
2022-09-23T12:32:54.605Z,100567
2022-09-23T12:37:54.623Z,100567
2022-09-23T12:42:54.570Z,100553
2022-09-23T12:47:54.602Z,100553
2022-09-23T12:52:54.577Z,100550
2022-09-23T12:57:54.620Z,100550
2022-09-23T13:02:54.599Z,100531
2022-09-23T13:07:54.614Z,100522
2022-09-23T13:12:54.619Z,100522
2022-09-23T13:22:54.625Z,100519
2022-09-23T13:27:54.663Z,100522
2022-09-23T13:32:54.631Z,100522
2022-09-23T13:37:54.657Z,100504
2022-09-23T13:42:54.647Z,100504
2022-09-23T13:47:54.638Z,100504
2022-09-23T13:52:54.673Z,100504
2022-09-23T13:57:54.653Z,100505
2022-09-23T14:02:54.652Z,100502
2022-09-23T14:07:54.692Z,100495
2022-09-23T14:12:54.666Z,100495
2022-09-23T14:17:54.658Z,100495
2022-09-23T14:22:54.630Z,100484
2022-09-23T14:27:59.784Z,100477
2022-09-23T14:32:54.664Z,100484
2022-09-23T14:37:54.686Z,100482
2022-09-23T14:42:54.645Z,100487
2022-09-23T14:47:54.684Z,100479
2022-09-23T14:52:54.656Z,100465
2022-09-23T14:57:54.681Z,100468
2022-09-23T15:02:54.680Z,100466
2022-09-23T15:07:54.703Z,100464
2022-09-23T15:12:54.686Z,100465
2022-09-23T15:17:54.683Z,100465
2022-09-23T15:22:54.714Z,100460
2022-09-23T15:27:54.678Z,100454
2022-09-23T15:32:54.700Z,100454
2022-09-23T15:37:54.719Z,100452
2022-09-23T15:42:54.710Z,100452
2022-09-23T15:47:54.695Z,100451
2022-09-23T15:52:54.720Z,100451
2022-09-23T15:57:54.720Z,100456
2022-09-23T16:07:54.734Z,100463
2022-09-23T16:12:54.724Z,100458
2022-09-23T16:17:54.726Z,100459
2022-09-23T16:22:54.708Z,100461
2022-09-23T16:27:54.745Z,100457
2022-09-23T16:32:54.724Z,100456
2022-09-23T16:37:54.741Z,100451
2022-09-23T16:42:54.749Z,100451
2022-09-23T16:47:54.734Z,100458
2022-09-23T16:52:54.713Z,100464
2022-09-23T16:57:54.789Z,100464
2022-09-23T17:02:54.723Z,100464
2022-09-23T17:07:54.755Z,100455
2022-09-23T17:12:54.753Z,100459
2022-09-23T17:17:54.735Z,100456
2022-09-23T17:22:54.772Z,100462
2022-09-23T17:27:54.770Z,100459
2022-09-23T17:32:54.789Z,100471
2022-09-23T17:37:54.734Z,100471
2022-09-23T17:42:54.768Z,100473
2022-09-23T17:47:54.781Z,100477
2022-09-23T17:52:54.787Z,100473
2022-09-23T17:57:54.772Z,100477
2022-09-23T18:02:54.805Z,100481
2022-09-23T18:07:54.802Z,100482
2022-09-23T18:12:54.759Z,100480
2022-09-23T18:17:54.819Z,100485
2022-09-23T18:22:54.766Z,100487
2022-09-23T18:27:54.796Z,100483
2022-09-23T18:32:54.780Z,100483
2022-09-23T18:37:54.816Z,100482
2022-09-23T18:42:54.801Z,100485
2022-09-23T18:47:54.798Z,100485
2022-09-23T18:52:54.777Z,100488
2022-09-23T18:57:54.806Z,100487
2022-09-23T19:02:54.841Z,100484
2022-09-23T19:07:55.369Z,100490
2022-09-23T19:12:54.784Z,100486
2022-09-23T19:17:54.847Z,100488
2022-09-23T19:22:54.822Z,100490
2022-09-23T19:27:54.814Z,100495
2022-09-23T19:32:54.815Z,100491
2022-09-23T19:37:54.863Z,100488
2022-09-23T19:42:54.814Z,100492
2022-09-23T19:47:54.832Z,100492
2022-09-23T19:52:54.799Z,100490
2022-09-23T19:57:54.840Z,100488
2022-09-23T20:02:54.845Z,100487
2022-09-23T20:07:54.856Z,100493
2022-09-23T20:12:54.884Z,100496
2022-09-23T20:17:54.848Z,100496
2022-09-23T20:22:54.842Z,100490
2022-09-23T20:27:54.838Z,100487
2022-09-23T20:32:55.133Z,100483
2022-09-23T20:37:54.860Z,100482
2022-09-23T20:42:54.854Z,100488
2022-09-23T20:47:54.850Z,100486
2022-09-23T20:52:54.869Z,100483
2022-09-23T20:57:54.858Z,100485
2022-09-23T21:02:54.863Z,100488
2022-09-23T21:07:54.832Z,100481
2022-09-23T21:12:54.859Z,100486
2022-09-23T21:17:54.874Z,100481
2022-09-23T21:22:54.835Z,100477
2022-09-23T21:27:54.865Z,100484
2022-09-23T21:32:54.903Z,100492
2022-09-23T21:37:54.877Z,100492
2022-09-23T21:42:55.188Z,100490
2022-09-23T21:47:54.882Z,100490
2022-09-23T21:52:54.858Z,100492
2022-09-23T21:57:54.881Z,100484
2022-09-23T22:02:54.884Z,100494
2022-09-23T22:07:54.864Z,100499
2022-09-23T22:12:54.892Z,100497
2022-09-23T22:17:54.890Z,100498
2022-09-23T22:22:54.901Z,100496
2022-09-23T22:27:54.892Z,100493
2022-09-23T22:32:55.268Z,100499
2022-09-23T22:37:54.914Z,100503
2022-09-23T22:42:54.867Z,100492
2022-09-23T22:47:54.906Z,100494
2022-09-23T22:52:54.910Z,100494
2022-09-23T22:57:54.914Z,100494
2022-09-23T23:02:54.894Z,100494
2022-09-23T23:07:54.920Z,100494
2022-09-23T23:12:54.906Z,100497
2022-09-23T23:17:54.910Z,100488
2022-09-23T23:22:54.923Z,100488
2022-09-23T23:27:54.942Z,100492
2022-09-23T23:32:54.961Z,100488
2022-09-23T23:37:54.926Z,100484
2022-09-23T23:42:54.898Z,100488
2022-09-23T23:47:54.937Z,100483
2022-09-23T23:52:54.899Z,100483
2022-09-23T23:57:54.945Z,100480
